KA8DUX-2 Weather Reports


Display with metric or nautical units.
time (UTC)temp
F
wind
direction
speed
MPH
gust
MPH
rain 1hr
in
rain 24hr
in
rain mn
in
humidity
%
barometer
mb
20240715001248 81 160 1.0 1.0 0.00 0.05 0.05 71 1011.5
20240715000747 81 187 2.0 2.0 0.00 0.05 0.05 71 1011.6
20240715000248 81 250 4.0 8.0 0.00 0.05 0.05 70 1011.5
20240714235745 81 144 1.0 1.0 0.00 0.05 0.05 70 1011.6
20240714235245 81 237 3.0 3.0 0.00 0.05 0.05 69 1011.5
20240714234744 82 204 1.0 2.0 0.00 0.05 0.05 69 1011.5
20240714234243 82 136 1.0 2.0 0.00 0.05 0.05 71 1011.1
20240714233741 82 198 1.0 2.0 0.00 0.05 0.05 71 1011.5
20240714233241 82 152 0.0 0.0 0.00 0.05 0.05 71 1011.2
20240714232740 82 219 4.0 7.0 0.00 0.05 0.05 70 1011.4
20240714232238 82 237 1.0 3.0 0.00 0.05 0.05 69 1011.5
20240714231736 83 280 3.0 3.0 0.00 0.05 0.05 68 1011.4
20240714231235 83 132 1.0 1.0 0.00 0.05 0.05 67 1011.5
20240714230733 83 150 3.0 5.0 0.00 0.05 0.05 66 1011.6
20240714230232 83 133 0.0 0.0 0.00 0.05 0.05 66 1011.5
20240714225731 84 224 2.0 3.0 0.00 0.05 0.05 64 1011.4
20240714225230 84 216 2.0 2.0 0.00 0.05 0.05 63 1011.4
20240714224728 84 211 1.0 1.0 0.00 0.05 0.05 65 1011.4
20240714224227 85 309 2.0 2.0 0.00 0.05 0.05 64 1011.4
20240714223726 84 198 1.0 1.0 0.00 0.05 0.05 65 1011.2
20240714223223 84 163 0.0 1.0 0.00 0.05 0.05 64 1011.2
20240714222722 85 96 0.0 1.0 0.00 0.05 0.05 65 1011.2
20240714222221 85 225 1.0 2.0 0.00 0.05 0.05 63 1011.4
20240714221720 85 131 0.0 0.0 0.00 0.05 0.05 64 1011.2
20240714221219 84 211 2.0 2.0 0.00 0.05 0.05 64 1011.1
20240714220718 85 172 3.0 5.0 0.00 0.05 0.05 64 1011.0
20240714220216 85 164 4.0 6.0 0.00 0.05 0.05 64 1011.2
20240714215715 86 229 4.0 6.0 0.00 0.05 0.05 64 1011.4
20240714215213 86 223 1.0 2.0 0.00 0.05 0.05 63 1011.2
20240714214711 85 219 2.0 2.0 0.00 0.05 0.05 63 1011.4
20240714214210 86 245 6.0 7.0 0.00 0.05 0.05 61 1011.0
20240714213708 86 125 0.0 0.0 0.00 0.05 0.05 61 1011.7
20240714213206 86 180 1.0 2.0 0.00 0.05 0.05 62 1011.7
20240714212706 86 143 2.0 2.0 0.00 0.05 0.05 60 1011.7
20240714212205 87 146 1.0 2.0 0.00 0.05 0.05 59 1011.7
20240714211704 87 232 3.0 3.0 0.00 0.05 0.05 59 1011.9
20240714211203 87 171 2.0 6.0 0.00 0.05 0.05 58 1011.6
20240714210703 87 270 2.0 3.0 0.00 0.05 0.05 59 1011.5
20240714210201 88 189 0.0 0.0 0.00 0.05 0.05 58 1011.7
20240714205659 87 200 5.0 8.0 0.00 0.05 0.05 57 1011.6
20240714205159 89 135 0.0 0.0 0.00 0.05 0.05 55 1011.9
20240714204659 89 177 2.0 2.0 0.00 0.05 0.05 55 1011.6
20240714204157 90 171 0.0 0.0 0.00 0.05 0.05 56 1011.6
20240714203657 89 137 0.0 1.0 0.00 0.05 0.05 54 1011.5
20240714203153 88 249 1.0 3.0 0.00 0.05 0.05 55 1011.5
20240714202652 88 126 0.0 1.0 0.00 0.05 0.05 59 1011.8
20240714202152 88 142 1.0 1.0 0.00 0.05 0.05 55 1011.8
20240714201652 88 142 0.0 0.0 0.00 0.05 0.05 57 1011.9
20240714201151 87 156 2.0 5.0 0.00 0.05 0.05 56 1011.9
20240714200649 88 224 2.0 5.0 0.00 0.05 0.05 56 1011.9
20240714200147 87 184 0.0 0.0 0.00 0.05 0.05 58 1012.1
20240714195646 87 233 3.0 6.0 0.00 0.05 0.05 57 1012.3
20240714195146 87 118 0.0 1.0 0.00 0.05 0.05 58 1012.3
20240714194645 88 220 7.0 9.0 0.00 0.05 0.05 56 1012.0
20240714194144 87 254 0.0 1.0 0.00 0.05 0.05 57 1012.4
20240714193644 86 208 2.0 3.0 0.00 0.05 0.05 58 1012.2
20240714193142 86 137 2.0 2.0 0.00 0.05 0.05 58 1012.3
20240714192641 85 174 3.0 5.0 0.00 0.05 0.05 59 1012.2
20240714192140 85 243 3.0 5.0 0.00 0.05 0.05 59 1012.3
20240714191638 85 193 2.0 3.0 0.00 0.05 0.05 61 1012.5
20240714191136 87 258 3.0 5.0 0.00 0.05 0.05 56 1012.2
20240714190636 86 212 3.0 3.0 0.00 0.05 0.05 59 1012.1
20240714190134 86 147 3.0 5.0 0.00 0.05 0.05 56 1012.1
20240714185633 86 201 2.0 2.0 0.00 0.05 0.05 58 1012.1
20240714185132 86 96 3.0 6.0 0.00 0.05 0.05 59 1012.1
20240714184630 86 173 0.0 1.0 0.00 0.05 0.05 61 1012.2
20240714184128 84 174 1.0 2.0 0.00 0.05 0.05 64 1012.1
20240714183628 83 135 1.0 2.0 0.00 0.05 0.05 65 1012.1
20240714183126 84 217 2.0 3.0 0.00 0.05 0.05 66 1012.1
20240714182624 84 147 2.0 3.0 0.00 0.05 0.05 69 1012.1
20240714182122 84 167 2.0 3.0 0.00 0.05 0.05 68 1012.1
20240714181621 84 150 2.0 2.0 0.00 0.05 0.05 70 1012.2
20240714181120 84 271 4.0 7.0 0.00 0.05 0.05 70 1012.3
20240714180620 84 133 1.0 2.0 0.00 0.05 0.05 69 1012.2
20240714180120 84 139 0.0 0.0 0.00 0.05 0.05 69 1012.4
20240714175619 85 138 0.0 0.0 0.00 0.05 0.05 66 1012.2
20240714175117 84 206 3.0 5.0 0.00 0.05 0.05 66 1012.0
20240714174618 84 153 1.0 2.0 0.00 0.05 0.05 69 1012.2
20240714174116 84 128 4.0 6.0 0.00 0.05 0.05 69 1012.1
20240714173615 84 145 0.0 1.0 0.00 0.05 0.05 72 1012.3
20240714173114 84 234 2.0 2.0 0.00 0.05 0.05 69 1012.4
20240714172612 84 146 0.0 1.0 0.00 0.05 0.05 70 1012.4
20240714172112 85 264 2.0 3.0 0.00 0.05 0.05 70 1012.6
20240714171610 85 156 5.0 9.0 0.00 0.05 0.05 69 1012.1
20240714171108 86 120 0.0 0.0 0.00 0.05 0.05 70 1012.0
20240714170607 85 147 0.0 0.0 0.00 0.05 0.05 71 1011.2
20240714170105 85 227 3.0 7.0 0.00 0.05 0.05 71 1010.6
20240714165605 85 211 5.0 7.0 0.00 0.05 0.05 70 1010.7
20240714165105 85 180 2.0 3.0 0.00 0.05 0.05 73 1011.6
20240714164604 84 166 2.0 3.0 0.00 0.05 0.05 74 1011.8
20240714164102 84 230 1.0 1.0 0.00 0.05 0.05 74 1012.1
20240714163600 82 149 2.0 2.0 0.00 0.05 0.05 77 1012.2
20240714163059 82 134 2.0 3.0 0.00 0.05 0.05 78 1012.3
20240714162556 81 161 0.0 1.0 0.00 0.05 0.05 79 1012.4
20240714162055 81 166 1.0 2.0 0.00 0.05 0.05 78 1012.5
20240714161554 83 196 3.0 5.0 0.00 0.05 0.05 76 1012.3
20240714161052 83 163 1.0 2.0 0.00 0.05 0.05 76 1012.5
20240714160552 84 132 0.0 0.0 0.00 0.05 0.05 76 1012.3
20240714160050 84 162 0.0 1.0 0.00 0.05 0.05 74 1012.4
20240714155549 84 141 0.0 0.0 0.00 0.05 0.05 75 1011.9
20240714155048 82 146 1.0 1.0 0.00 0.05 0.05 77 1011.7
20240714154545 81 116 0.0 1.0 0.00 0.05 0.05 78 1011.7
20240714154044 80 132 1.0 2.0 0.00 0.05 0.05 81 1011.8
20240714153542 80 120 0.0 0.0 0.00 0.05 0.05 80 1011.6
20240714153041 80 169 1.0 2.0 0.00 0.05 0.05 79 1011.2
20240714152540 80 137 0.0 0.0 0.00 0.05 0.05 80 1011.9
20240714152039 80 216 3.0 5.0 0.00 0.05 0.05 79 1012.2
20240714151538 79 249 2.0 3.0 0.00 0.05 0.05 81 1012.5
20240714151036 79 126 1.0 2.0 0.00 0.05 0.05 81 1012.7
20240714150535 78 208 3.0 3.0 0.00 0.05 0.05 80 1013.2
20240714150035 77 216 2.0 3.0 0.00 0.05 0.05 83 1013.5
20240714145532 76 132 0.0 0.0 0.00 0.05 0.05 85 1013.7
20240714145030 76 135 1.0 2.0 0.00 0.05 0.05 84 1013.6
20240714144529 77 227 1.0 3.0 0.00 0.05 0.05 82 1013.7
20240714144027 77 214 2.0 2.0 0.00 0.05 0.05 83 1013.5
20240714143528 76 216 2.0 3.0 0.00 0.05 0.05 83 1013.8
20240714143027 76 135 1.0 1.0 0.00 0.05 0.05 83 1013.7
20240714142525 76 145 0.0 0.0 0.00 0.05 0.05 85 1013.9
20240714142024 75 217 2.0 3.0 0.00 0.05 0.05 84 1014.1
20240714141523 75 203 1.0 1.0 0.00 0.05 0.05 85 1014.3
20240714141021 75 124 1.0 1.0 0.00 0.05 0.05 84 1014.4
20240714140520 75 148 1.0 2.0 0.00 0.05 0.05 84 1014.3
20240714140018 75 182 1.0 1.0 0.00 0.05 0.05 84 1014.2
20240714135516 75 157 2.0 2.0 0.00 0.05 0.05 83 1014.1
20240714135014 75 142 1.0 1.0 0.00 0.05 0.05 84 1014.4
20240714134513 75 159 1.0 2.0 0.00 0.05 0.05 84 1014.5
20240714134012 75 210 2.0 3.0 0.00 0.05 0.05 83 1014.7
20240714133511 75 141 2.0 2.0 0.00 0.05 0.05 85 1014.6
20240714133011 74 122 3.0 3.0 0.00 0.05 0.05 85 1014.6
20240714132508 74 163 2.0 3.0 0.00 0.05 0.05 86 1014.7
20240714132006 73 236 3.0 3.0 0.00 0.05 0.05 87 1014.3
20240714131506 73 125 1.0 1.0 0.00 0.05 0.05 87 1014.4
20240714131005 73 232 7.0 10.0 0.00 0.05 0.05 88 1014.5
20240714130503 72 161 1.0 2.0 0.00 0.05 0.05 91 1014.4
20240714130003 72 231 2.0 2.0 0.00 0.05 0.05 91 1014.7
20240714125459 71 211 1.0 1.0 0.00 0.05 0.05 92 1014.8
20240714124959 71 150 0.0 1.0 0.00 0.05 0.05 92 1014.7
20240714124458 71 224 2.0 3.0 0.00 0.05 0.05 91 1014.8
20240714123957 70 239 1.0 1.0 0.00 0.05 0.05 92 1014.7
20240714123457 70 138 0.0 1.0 0.00 0.05 0.05 93 1014.6
20240714122956 70 143 1.0 1.0 0.00 0.05 0.05 93 1014.8
20240714122454 70 196 0.0 0.0 0.00 0.05 0.05 93 1014.8
20240714121953 70 242 1.0 2.0 0.00 0.05 0.05 93 1014.6
20240714121452 70 184 3.0 5.0 0.00 0.05 0.05 93 1014.7
20240714120951 69 146 2.0 2.0 0.00 0.05 0.05 93 1014.5
20240714120450 69 121 0.0 0.0 0.00 0.05 0.05 94 1015.0
20240714115950 69 145 1.0 1.0 0.00 0.05 0.05 94 1014.7
20240714115447 69 161 2.0 2.0 0.00 0.05 0.05 94 1014.8
20240714114946 69 199 2.0 3.0 0.00 0.05 0.05 94 1014.5
20240714114444 69 144 0.0 0.0 0.00 0.05 0.05 95 1014.5
20240714113944 69 176 1.0 2.0 0.00 0.05 0.05 95 1014.7
20240714113442 69 180 1.0 2.0 0.00 0.05 0.05 95 1014.9
20240714112942 69 163 1.0 1.0 0.00 0.05 0.05 95 1014.9
20240714112440 69 148 0.0 0.0 0.00 0.05 0.05 95 1015.0
20240714111939 69 146 2.0 2.0 0.00 0.05 0.05 95 1014.9
20240714111437 69 135 0.0 0.0 0.00 0.05 0.05 95 1015.2
20240714110936 69 144 0.0 0.0 0.00 0.05 0.05 95 1015.3
20240714110435 69 144 0.0 0.0 0.00 0.05 0.05 94 1015.2
20240714105934 69 145 0.0 0.0 0.00 0.05 0.05 95 1015.3
20240714105432 69 151 1.0 2.0 0.00 0.05 0.05 95 1015.3
20240714104933 69 180 0.0 0.0 0.00 0.05 0.05 94 1015.1
20240714104431 69 206 2.0 2.0 0.00 0.05 0.05 94 1015.0
20240714103930 69 156 0.0 0.0 0.00 0.05 0.05 94 1014.8
20240714103428 68 134 0.0 1.0 0.00 0.05 0.05 95 1014.6
20240714102927 68 197 0.0 0.0 0.00 0.05 0.05 95 1014.5
20240714102425 68 171 0.0 0.0 0.00 0.05 0.05 95 1014.3
20240714101923 68 136 0.0 0.0 0.00 0.05 0.05 95 1014.2
20240714101421 68 152 0.0 0.0 0.00 0.05 0.05 95 1014.3
20240714100920 68 151 0.0 0.0 0.00 0.05 0.05 95 1014.3
20240714100420 68 166 0.0 1.0 0.00 0.05 0.05 95 1014.3
20240714095918 68 162 0.0 0.0 0.00 0.05 0.05 95 1014.6
20240714095417 68 218 0.0 0.0 0.00 0.05 0.05 95 1014.3
20240714094916 68 128 0.0 0.0 0.00 0.05 0.05 95 1014.4
20240714094414 68 135 0.0 0.0 0.00 0.05 0.05 95 1014.2
20240714093913 68 160 0.0 0.0 0.00 0.05 0.05 96 1014.2
20240714093410 69 160 1.0 1.0 0.00 0.05 0.05 95 1014.0
20240714092910 68 166 0.0 0.0 0.00 0.05 0.05 96 1014.2
20240714092408 68 134 0.0 0.0 0.00 0.05 0.05 95 1013.8
20240714091906 69 134 0.0 0.0 0.00 0.05 0.05 95 1013.8
20240714091402 69 162 0.0 0.0 0.00 0.05 0.05 95 1013.7
20240714090900 69 127 0.0 0.0 0.00 0.05 0.05 95 1013.9
20240714090358 69 191 0.0 1.0 0.00 0.05 0.05 95 1013.9
20240714085858 69 148 0.0 0.0 0.00 0.05 0.05 95 1014.0
20240714085357 69 136 0.0 0.0 0.00 0.05 0.05 95 1014.1
20240714084856 69 134 0.0 0.0 0.00 0.05 0.05 95 1014.3
20240714084356 69 186 1.0 2.0 0.00 0.05 0.05 95 1014.5
20240714083855 69 145 0.0 1.0 0.00 0.05 0.05 96 1014.5
20240714083354 69 220 2.0 2.0 0.00 0.05 0.05 96 1014.8
20240714082852 69 143 0.0 0.0 0.00 0.05 0.05 96 1014.7
20240714082350 69 141 0.0 1.0 0.00 0.05 0.05 96 1014.9
20240714081850 69 166 0.0 0.0 0.00 0.05 0.05 96 1015.3
20240714081349 70 204 0.0 0.0 0.00 0.05 0.05 96 1015.1
20240714080848 69 127 0.0 0.0 0.00 0.05 0.05 96 1015.2
20240714080347 70 168 1.0 1.0 0.00 0.05 0.05 96 1014.9
20240714075847 69 180 3.0 3.0 0.00 0.05 0.05 96 1015.0
20240714075345 70 185 0.0 0.0 0.00 0.05 0.05 96 1014.8
20240714074845 70 136 0.0 0.0 0.00 0.05 0.05 96 1015.0
20240714074343 70 132 3.0 5.0 0.07 0.05 0.05 96 1014.8
20240714073842 70 183 1.0 1.0 0.07 0.05 0.05 96 1014.9
20240714073339 70 166 3.0 3.0 0.00 0.03 0.03 95 1014.9
20240714072836 70 134 0.0 0.0 0.00 0.03 0.03 95 1014.8
20240714072335 70 137 1.0 2.0 0.04 0.03 0.03 95 1014.6
20240714071834 70 137 1.0 2.0 0.04 0.03 0.03 95 1014.2
20240714071333 70 136 0.0 0.0 0.07 0.03 0.03 94 1014.2
20240714070833 71 152 3.0 7.0 0.07 0.03 0.03 94 1014.6
20240714070331 71 161 1.0 1.0 0.04 0.02 0.02 93 1014.4
20240714065829 71 130 0.0 0.0 0.11 0.02 0.02 92 1014.8
20240714065327 72 115 2.0 3.0 0.07 0.01 0.01 90 1014.8
20240714064826 73 154 0.0 1.0 0.00 0.00 0.00 88 1014.9
20240714064325 73 166 1.0 2.0 0.00 0.00 0.00 85 1015.0
20240714063824 75 181 0.0 0.0 0.00 0.00 0.00 82 1015.2
20240714063322 75 190 2.0 3.0 0.00 0.00 0.00 79 1015.1
20240714062822 76 222 1.0 2.0 0.00 0.00 0.00 78 1015.0
20240714062320 76 139 0.0 1.0 0.00 0.00 0.00 78 1014.9
20240714061819 77 195 2.0 3.0 0.00 0.00 0.00 80 1015.0
20240714061318 77 240 1.0 2.0 0.00 0.00 0.00 80 1015.0
20240714060818 77 215 1.0 2.0 0.00 0.00 0.00 80 1015.1
20240714060316 77 220 2.0 2.0 0.00 0.00 0.00 81 1015.1
20240714055815 77 143 1.0 1.0 0.00 0.00 0.00 80 1015.4
20240714055314 77 187 2.0 2.0 0.00 0.00 0.00 79 1015.3
20240714054814 78 145 2.0 2.0 0.00 0.00 0.00 78 1015.6
20240714054312 78 164 1.0 1.0 0.00 0.00 0.00 78 1015.3
20240714053812 78 159 2.0 2.0 0.00 0.00 0.00 78 1015.4
20240714053310 78 182 2.0 2.0 0.00 0.00 0.00 78 1015.5
20240714052808 78 127 1.0 1.0 0.00 0.00 0.00 78 1015.4
20240714052307 78 152 0.0 0.0 0.00 0.00 0.00 77 1015.5
20240714051805 78 157 2.0 3.0 0.00 0.00 0.00 77 1015.6
20240714051304 78 133 0.0 0.0 0.00 0.00 0.00 77 1015.5
20240714050804 78 165 0.0 1.0 0.00 0.00 0.00 77 1015.6
20240714050302 78 203 2.0 2.0 0.00 0.00 0.00 77 1015.6
20240714045802 78 137 0.0 1.0 0.00 0.00 0.00 77 1015.6
20240714045258 78 128 1.0 1.0 0.00 0.00 0.00 77 1015.8
20240714044756 78 185 0.0 1.0 0.00 0.00 0.00 77 1015.9
20240714044255 78 172 1.0 1.0 0.00 0.00 0.00 77 1016.0
20240714043753 78 139 1.0 1.0 0.00 0.00 0.00 77 1015.9
20240714043252 78 134 0.0 0.0 0.00 0.00 0.00 77 1016.0
20240714042751 78 133 1.0 1.0 0.00 0.00 0.00 77 1016.3
20240714042250 77 192 1.0 3.0 0.00 0.00 0.00 77 1016.0
20240714041749 78 141 0.0 0.0 0.00 0.00 0.00 77 1016.4
20240714041248 78 123 1.0 2.0 0.00 0.00 0.00 77 1016.2
20240714040746 78 143 0.0 0.0 0.00 0.00 0.00 77 1016.2
20240714040245 78 136 0.0 0.0 0.00 0.00 0.00 77 1016.3
20240714035744 78 145 0.0 0.0 0.00 0.00 0.00 77 1016.3
20240714035243 78 143 1.0 1.0 0.00 0.00 0.00 77 1016.4
20240714034741 78 176 2.0 2.0 0.00 0.00 0.00 77 1016.2
20240714034241 78 124 0.0 0.0 0.00 0.00 0.00 78 1016.3
20240714033739 78 134 0.0 0.0 0.00 0.00 0.00 77 1016.4
20240714033238 78 123 0.0 0.0 0.00 0.00 0.00 77 1016.4
20240714032737 78 136 0.0 0.0 0.00 0.00 0.00 77 1016.9
20240714032235 78 130 0.0 0.0 0.00 0.00 0.00 77 1016.7
20240714031733 78 154 0.0 0.0 0.00 0.00 0.00 77 1016.7
20240714031231 78 136 0.0 0.0 0.00 0.00 0.00 77 1016.5
20240714030728 78 133 0.0 0.0 0.00 0.00 0.00 78 1016.8
20240714030225 78 137 0.0 0.0 0.00 0.00 0.00 77 1016.8
20240714025725 78 139 0.0 0.0 0.00 0.00 0.00 76 1017.3
20240714025223 78 136 0.0 0.0 0.00 0.00 0.00 76 1017.1
20240714024723 79 122 0.0 0.0 0.00 0.00 0.00 76 1017.3
20240714024222 79 126 0.0 0.0 0.00 0.00 0.00 75 1017.5
20240714023721 79 152 0.0 0.0 0.00 0.00 0.00 74 1017.4
20240714023220 79 136 0.0 0.0 0.00 0.00 0.00 75 1017.5
20240714022719 79 136 0.0 0.0 0.00 0.00 0.00 74 1017.5
20240714022217 79 151 0.0 0.0 0.00 0.00 0.00 74 1017.3
20240714021716 79 140 0.0 0.0 0.00 0.00 0.00 74 1017.2
20240714021213 79 135 0.0 0.0 0.00 0.00 0.00 73 1017.1
20240714020713 79 132 0.0 0.0 0.00 0.00 0.00 73 1017.1
20240714020212 80 131 0.0 0.0 0.00 0.00 0.00 72 1017.1
20240714015710 80 138 0.0 0.0 0.00 0.00 0.00 71 1017.2
20240714015208 80 138 0.0 0.0 0.00 0.00 0.00 71 1017.1
20240714014707 80 145 0.0 0.0 0.00 0.00 0.00 71 1016.9
20240714014205 79 136 0.0 0.0 0.00 0.00 0.00 72 1016.8
20240714013704 79 133 0.0 0.0 0.00 0.00 0.00 73 1016.7
20240714013203 79 127 0.0 0.0 0.00 0.00 0.00 73 1016.5
20240714012700 79 132 0.0 0.0 0.00 0.00 0.00 73 1017.0
20240714012158 80 131 0.0 0.0 0.00 0.00 0.00 72 1016.8
20240714011657 80 133 0.0 0.0 0.00 0.00 0.00 71 1016.9
20240714011156 80 124 0.0 0.0 0.00 0.00 0.00 71 1017.1
20240714010655 81 124 0.0 0.0 0.00 0.00 0.00 69 1016.8
20240714010153 81 123 0.0 0.0 0.00 0.00 0.00 68 1017.3
20240714005651 81 127 0.0 0.0 0.00 0.00 0.00 68 1017.1
20240714005150 82 135 0.0 0.0 0.00 0.00 0.00 67 1017.3
20240714004648 82 130 0.0 0.0 0.00 0.00 0.00 66 1017.3
20240714004147 82 130 0.0 0.0 0.00 0.00 0.00 66 1017.4
20240714003646 83 132 0.0 0.0 0.00 0.00 0.00 65 1017.3
20240714003144 83 131 0.0 0.0 0.00 0.00 0.00 65 1017.5
20240714002640 83 137 0.0 0.0 0.00 0.00 0.00 64 1017.5
20240714002139 83 140 0.0 1.0 0.00 0.00 0.00 63 1017.4
20240714001638 83 131 0.0 0.0 0.00 0.00 0.00 64 1017.4